Latest  Newer  Older  Last 2 hours slideshow  Last 24 hours slideshow  Refresh every 5 minutes 
Current image  Latest image  Rain/snow radar  Cloud coverage sat images 

All time is UTC (add 2 hours to UTC in wintertime, 3 hours to UTC in DST for Latvia local time)

2019/06/15 22:50 EVRA 152250Z 36002KT CAVOK 12/10 Q1016 NOSIG
2019/06/15 22:50 EVLA 152250Z 07005KT 9999 NSC 17/12 Q1014
2019/06/15 22:50 EVVA 152250Z AUTO 09004KT CAVOK 17/13 Q1016
2019/06/15 22:50 EYKA 152250Z AUTO 08007KT 9999 NCD 16/11 Q1016
2019/06/15 22:50 EYPA 152250Z AUTO 09008KT 060V120 9999 FEW180/// 19/12 Q1014
2019/06/15 22:50 EYSA 152250Z AUTO 09006KT 9999NDV NSC 17/10 Q1017
2019/06/15 22:50 EYVI 152250Z 09005KT CAVOK 18/11 Q1016 NOSIG
2019/06/15 07:50 EEKA 150750Z 30007KT CAVOK 20/13 Q1018
2019/06/15 22:50 EEKE 152250Z AUTO 05003KT 9999NDV NCD 11/11 Q1017
2019/06/15 12:50 EEPU 151250Z 21010KT CAVOK 21/16 Q1018
2019/06/15 22:50 EETN 152250Z 24003KT CAVOK 12/11 Q1016
2019/06/15 22:50 EETU 152250Z AUTO 28005KT 9999 NCD 13/12 Q1017
   RIGA AIRPORT     EVRA               56 55N  023 58E   10   X     T          6 LV
   LIEPAJA INTL     EVLA        26406  56 31N  021 06E    4   X                8 LV
   VENTPILS         EVVA               57 21N  021 33E    6   X                8 LV
   KAUNAS           EYKA               54 54N  023 55E   77   X     T          6 LT
   PALANGA INTL     EYPA               55 55N  021 03E   10   X                6 LT
   SIAULIAI INTL    EYSA               55 54N  023 24E  135   X     T          6 LT
   VILNIUS INTL     EYVI        26730  54 38N  025 17E  197   X     T          6 LT
   KARDLA           EEKA        26116  58 59N  022 50E    4   X                8 EE
   KURESSAARE       EEKE               58 14N  022 31E    4   X                8 EE
   PARNU            EEPU               58 25N  024 28E   14   X                8 EE
   TALLINN          EETN        26038  59 24N  024 49E   40   X     T          8 EE
   TARTU            EETU               58 19N  026 41E   67   X                8 EE